RYR5805 EPMO-ESMS
Flight info
| Callsign | RYR5805 |
|---|---|
| Flight time | 0h 55m |
| Altitude | 36000 |
| Route | OLILA L621 ROE |
| Aircraft | B738/M-SDE2E3FGHIRWXY/LB1 |
Departure
| Time | 2026-04-24 19:18 |
|---|---|
| Airport | Warsaw Modlin Airport (EPMO) |
Arrival
| Time | 2026-04-24 20:14 |
|---|---|
| Airport | Malmö Sturup Airport (ESMS) |
| Time | Latitude | Longitude | Altitude | Speed | Heading |
|---|---|---|---|---|---|
| 2026-04-24 18:54 | 52.44736 | 20.65178 | 337 ft | 0 kts | 206° |
| 2026-04-24 19:09 | 52.44737 | 20.65179 | 337 ft | 2 kts | 206° |
| 2026-04-24 19:09 | 52.44756 | 20.65194 | 332 ft | 4 kts | 201° |
| 2026-04-24 19:09 | 52.44777 | 20.65198 | 335 ft | 4 kts | 133° |
| 2026-04-24 19:10 | 52.44782 | 20.65164 | 334 ft | 4 kts | 81° |
| 2026-04-24 19:10 | 52.44780 | 20.65136 | 336 ft | 0 kts | 81° |
| 2026-04-24 19:13 | 52.44780 | 20.65143 | 333 ft | 2 kts | 81° |
| 2026-04-24 19:13 | 52.44789 | 20.65237 | 334 ft | 14 kts | 81° |
| 2026-04-24 19:14 | 52.44806 | 20.65420 | 334 ft | 17 kts | 81° |
| 2026-04-24 19:14 | 52.44823 | 20.65608 | 336 ft | 16 kts | 83° |
| 2026-04-24 19:14 | 52.44838 | 20.65789 | 333 ft | 16 kts | 81° |
| 2026-04-24 19:14 | 52.44855 | 20.65962 | 335 ft | 15 kts | 81° |
| 2026-04-24 19:15 | 52.44871 | 20.66129 | 337 ft | 14 kts | 82° |
| 2026-04-24 19:15 | 52.44886 | 20.66291 | 334 ft | 15 kts | 81° |
| 2026-04-24 19:15 | 52.44905 | 20.66498 | 337 ft | 22 kts | 81° |
| 2026-04-24 19:15 | 52.44931 | 20.66760 | 337 ft | 24 kts | 81° |
| 2026-04-24 19:16 | 52.45048 | 20.67067 | 335 ft | 17 kts | 351° |
| 2026-04-24 19:16 | 52.45159 | 20.67039 | 335 ft | 16 kts | 351° |
| 2026-04-24 19:16 | 52.45262 | 20.66987 | 338 ft | 15 kts | 327° |
| 2026-04-24 19:17 | 52.45284 | 20.66875 | 337 ft | 8 kts | 260° |
| 2026-04-24 19:17 | 52.45273 | 20.66781 | 335 ft | 10 kts | 263° |
| 2026-04-24 19:17 | 52.45229 | 20.66319 | 333 ft | 81 kts | 261° |
| 2026-04-24 19:17 | 52.45104 | 20.65000 | 338 ft | 150 kts | 259° |
| 2026-04-24 19:18 | 52.44922 | 20.63169 | 847 ft | 169 kts | 261° |
| 2026-04-24 19:18 | 52.44725 | 20.61259 | 1822 ft | 168 kts | 262° |
| 2026-04-24 19:18 | 52.44523 | 20.59373 | 2580 ft | 178 kts | 262° |
| 2026-04-24 19:18 | 52.44296 | 20.57227 | 2971 ft | 197 kts | 264° |
| 2026-04-24 19:19 | 52.44378 | 20.54939 | 3285 ft | 214 kts | 292° |
| 2026-04-24 19:19 | 52.45400 | 20.53110 | 3596 ft | 233 kts | 328° |
| 2026-04-24 19:19 | 52.46769 | 20.51526 | 4108 ft | 246 kts | 310° |
| 2026-04-24 19:19 | 52.47805 | 20.49279 | 4997 ft | 247 kts | 307° |
| 2026-04-24 19:20 | 52.48845 | 20.47022 | 5862 ft | 250 kts | 308° |
| 2026-04-24 19:20 | 52.49915 | 20.44761 | 6695 ft | 253 kts | 308° |
| 2026-04-24 19:20 | 52.51018 | 20.42467 | 7486 ft | 259 kts | 309° |
| 2026-04-24 19:20 | 52.52156 | 20.40128 | 8291 ft | 265 kts | 309° |
| 2026-04-24 19:21 | 52.53324 | 20.37745 | 9143 ft | 271 kts | 309° |
| 2026-04-24 19:21 | 52.54521 | 20.35318 | 9978 ft | 276 kts | 309° |
| 2026-04-24 19:21 | 52.55764 | 20.32810 | 10467 ft | 295 kts | 309° |
| 2026-04-24 19:21 | 52.57122 | 20.30079 | 10672 ft | 321 kts | 309° |
| 2026-04-24 19:22 | 52.58074 | 20.28166 | 10985 ft | 330 kts | 309° |
| 2026-04-24 19:22 | 52.60046 | 20.24210 | 12020 ft | 336 kts | 309° |
| 2026-04-24 19:22 | 52.61533 | 20.21228 | 12924 ft | 338 kts | 309° |
| 2026-04-24 19:22 | 52.63029 | 20.18227 | 13822 ft | 341 kts | 309° |
| 2026-04-24 19:23 | 52.64542 | 20.15190 | 14628 ft | 344 kts | 309° |
| 2026-04-24 19:23 | 52.66064 | 20.12134 | 15480 ft | 346 kts | 309° |
| 2026-04-24 19:23 | 52.67589 | 20.09069 | 16314 ft | 349 kts | 309° |
| 2026-04-24 19:23 | 52.69141 | 20.05947 | 17158 ft | 352 kts | 309° |
| 2026-04-24 19:24 | 52.70699 | 20.02808 | 17981 ft | 355 kts | 309° |
| 2026-04-24 19:24 | 52.72241 | 19.99700 | 18708 ft | 358 kts | 309° |
| 2026-04-24 19:24 | 52.73824 | 19.96504 | 19426 ft | 361 kts | 309° |
| 2026-04-24 19:24 | 52.75417 | 19.93285 | 20128 ft | 364 kts | 309° |
| 2026-04-24 19:25 | 52.77022 | 19.90037 | 20821 ft | 366 kts | 309° |
| 2026-04-24 19:25 | 52.78637 | 19.86763 | 21497 ft | 369 kts | 309° |
| 2026-04-24 19:25 | 52.80266 | 19.83459 | 22160 ft | 372 kts | 309° |
| 2026-04-24 19:25 | 52.81907 | 19.80124 | 22813 ft | 375 kts | 309° |
| 2026-04-24 19:26 | 52.83539 | 19.76805 | 23452 ft | 378 kts | 309° |
| 2026-04-24 19:26 | 52.85201 | 19.73419 | 24040 ft | 380 kts | 309° |
| 2026-04-24 19:26 | 52.86889 | 19.69976 | 24229 ft | 392 kts | 309° |
| 2026-04-24 19:26 | 52.88634 | 19.66410 | 24328 ft | 405 kts | 309° |
| 2026-04-24 19:27 | 52.90433 | 19.62730 | 24408 ft | 417 kts | 309° |
| 2026-04-24 19:27 | 52.92277 | 19.58953 | 24471 ft | 427 kts | 309° |
| 2026-04-24 19:27 | 52.94158 | 19.55093 | 24691 ft | 432 kts | 309° |
| 2026-04-24 19:27 | 52.96047 | 19.51212 | 25062 ft | 433 kts | 309° |
| 2026-04-24 19:28 | 52.97947 | 19.47300 | 25477 ft | 434 kts | 309° |
| 2026-04-24 19:28 | 52.99844 | 19.43390 | 25844 ft | 434 kts | 309° |
| 2026-04-24 19:28 | 53.01700 | 19.39559 | 26155 ft | 436 kts | 309° |
| 2026-04-24 19:28 | 53.03600 | 19.35629 | 26454 ft | 436 kts | 309° |
| 2026-04-24 19:29 | 53.07384 | 19.27775 | 27206 ft | 433 kts | 309° |
| 2026-04-24 19:29 | 53.09259 | 19.23879 | 27653 ft | 430 kts | 309° |
| 2026-04-24 19:29 | 53.11127 | 19.19998 | 28098 ft | 428 kts | 309° |
| 2026-04-24 19:30 | 53.12980 | 19.16141 | 28553 ft | 425 kts | 309° |
| 2026-04-24 19:30 | 53.14822 | 19.12297 | 28986 ft | 424 kts | 309° |
| 2026-04-24 19:30 | 53.16657 | 19.08464 | 29400 ft | 423 kts | 309° |
| 2026-04-24 19:30 | 53.18485 | 19.04637 | 29840 ft | 421 kts | 309° |
| 2026-04-24 19:31 | 53.20305 | 19.00822 | 30248 ft | 419 kts | 308° |
| 2026-04-24 19:31 | 53.22080 | 18.97094 | 30594 ft | 417 kts | 308° |
| 2026-04-24 19:31 | 53.23876 | 18.93318 | 30971 ft | 416 kts | 308° |
| 2026-04-24 19:31 | 53.25669 | 18.89541 | 31448 ft | 411 kts | 308° |
| 2026-04-24 19:32 | 53.27441 | 18.85804 | 31856 ft | 409 kts | 308° |
| 2026-04-24 19:32 | 53.29206 | 18.82075 | 32157 ft | 409 kts | 308° |
| 2026-04-24 19:32 | 53.30971 | 18.78341 | 32439 ft | 409 kts | 308° |
| 2026-04-24 19:32 | 53.32735 | 18.74605 | 32724 ft | 409 kts | 308° |
| 2026-04-24 19:33 | 53.34496 | 18.70867 | 33053 ft | 408 kts | 308° |
| 2026-04-24 19:33 | 53.36249 | 18.67143 | 33412 ft | 407 kts | 308° |
| 2026-04-24 19:33 | 53.37995 | 18.63427 | 33768 ft | 406 kts | 308° |
| 2026-04-24 19:33 | 53.39741 | 18.59706 | 34065 ft | 405 kts | 308° |
| 2026-04-24 19:34 | 53.41455 | 18.56048 | 34305 ft | 405 kts | 308° |
| 2026-04-24 19:34 | 53.43195 | 18.52328 | 34519 ft | 406 kts | 308° |
| 2026-04-24 19:34 | 53.44935 | 18.48603 | 34750 ft | 406 kts | 308° |
| 2026-04-24 19:34 | 53.46674 | 18.44874 | 34995 ft | 406 kts | 308° |
| 2026-04-24 19:35 | 53.48412 | 18.41144 | 35227 ft | 406 kts | 308° |
| 2026-04-24 19:35 | 53.50174 | 18.37354 | 35447 ft | 406 kts | 308° |
| 2026-04-24 19:35 | 53.51888 | 18.33663 | 35636 ft | 407 kts | 308° |
| 2026-04-24 19:35 | 53.53628 | 18.29911 | 35862 ft | 407 kts | 308° |
| 2026-04-24 19:36 | 53.55373 | 18.26142 | 35967 ft | 409 kts | 308° |
| 2026-04-24 19:36 | 53.58870 | 18.18571 | 35970 ft | 408 kts | 307° |
| 2026-04-24 19:37 | 53.62338 | 18.11042 | 35983 ft | 406 kts | 307° |
| 2026-04-24 19:37 | 53.65785 | 18.03535 | 35990 ft | 405 kts | 307° |
| 2026-04-24 19:38 | 53.69189 | 17.96098 | 35970 ft | 404 kts | 307° |
| 2026-04-24 19:38 | 53.72064 | 17.89801 | 35975 ft | 404 kts | 307° |
| 2026-04-24 19:39 | 53.75464 | 17.82333 | 35985 ft | 404 kts | 307° |
| 2026-04-24 19:39 | 53.78887 | 17.74792 | 35986 ft | 405 kts | 307° |
| 2026-04-24 19:40 | 53.82308 | 17.67231 | 35986 ft | 405 kts | 307° |
| 2026-04-24 19:40 | 53.85733 | 17.59641 | 35989 ft | 405 kts | 307° |
| 2026-04-24 19:41 | 53.89156 | 17.52031 | 35982 ft | 406 kts | 306° |
| 2026-04-24 19:41 | 53.92580 | 17.44395 | 35987 ft | 406 kts | 306° |
| 2026-04-24 19:42 | 53.95986 | 17.36778 | 35990 ft | 406 kts | 306° |
| 2026-04-24 19:42 | 53.99403 | 17.29109 | 35989 ft | 406 kts | 306° |
| 2026-04-24 19:43 | 54.02796 | 17.21475 | 36017 ft | 406 kts | 306° |
| 2026-04-24 19:43 | 54.06182 | 17.13831 | 35989 ft | 405 kts | 306° |
| 2026-04-24 19:44 | 54.09592 | 17.06111 | 35983 ft | 405 kts | 306° |
| 2026-04-24 19:44 | 54.12905 | 16.98585 | 35984 ft | 405 kts | 306° |
| 2026-04-24 19:45 | 54.16284 | 16.90887 | 35985 ft | 405 kts | 306° |
| 2026-04-24 19:45 | 54.19656 | 16.83181 | 35979 ft | 405 kts | 306° |
| 2026-04-24 19:46 | 54.23026 | 16.75456 | 35977 ft | 405 kts | 306° |
| 2026-04-24 19:46 | 54.26390 | 16.67722 | 35955 ft | 405 kts | 306° |
| 2026-04-24 19:47 | 54.29752 | 16.59966 | 35977 ft | 406 kts | 306° |
| 2026-04-24 19:47 | 54.33117 | 16.52179 | 35983 ft | 407 kts | 306° |
| 2026-04-24 19:47 | 54.34806 | 16.48263 | 35632 ft | 409 kts | 305° |
| 2026-04-24 19:48 | 54.36473 | 16.44390 | 35261 ft | 398 kts | 305° |
| 2026-04-24 19:48 | 54.38096 | 16.40617 | 34885 ft | 389 kts | 305° |
| 2026-04-24 19:48 | 54.41284 | 16.33185 | 34173 ft | 386 kts | 305° |
| 2026-04-24 19:49 | 54.44454 | 16.25771 | 33363 ft | 384 kts | 305° |
| 2026-04-24 19:49 | 54.47614 | 16.18355 | 32349 ft | 385 kts | 305° |
| 2026-04-24 19:50 | 54.52343 | 16.07221 | 30905 ft | 384 kts | 305° |
| 2026-04-24 19:50 | 54.53916 | 16.03505 | 30418 ft | 384 kts | 306° |
| 2026-04-24 19:51 | 54.57020 | 15.96159 | 29370 ft | 387 kts | 306° |
| 2026-04-24 19:51 | 54.58605 | 15.92399 | 28807 ft | 389 kts | 306° |
| 2026-04-24 19:52 | 54.61802 | 15.84800 | 27734 ft | 393 kts | 306° |
| 2026-04-24 19:52 | 54.63410 | 15.80968 | 27211 ft | 395 kts | 306° |
| 2026-04-24 19:52 | 54.65026 | 15.77111 | 26693 ft | 398 kts | 306° |
| 2026-04-24 19:52 | 54.66652 | 15.73224 | 26189 ft | 400 kts | 306° |
| 2026-04-24 19:53 | 54.68285 | 15.69316 | 25695 ft | 402 kts | 306° |
| 2026-04-24 19:53 | 54.69923 | 15.65386 | 25206 ft | 403 kts | 306° |
| 2026-04-24 19:53 | 54.73198 | 15.57515 | 24247 ft | 402 kts | 306° |
| 2026-04-24 19:54 | 54.74813 | 15.53623 | 23780 ft | 394 kts | 307° |
| 2026-04-24 19:54 | 54.76405 | 15.49780 | 23275 ft | 389 kts | 307° |
| 2026-04-24 19:54 | 54.77981 | 15.45971 | 22734 ft | 388 kts | 306° |
| 2026-04-24 19:54 | 54.79548 | 15.42180 | 22198 ft | 386 kts | 306° |
| 2026-04-24 19:55 | 54.80581 | 15.39676 | 21895 ft | 385 kts | 306° |
| 2026-04-24 19:55 | 54.82655 | 15.34643 | 21176 ft | 382 kts | 307° |
| 2026-04-24 19:55 | 54.84192 | 15.30904 | 20661 ft | 380 kts | 307° |
| 2026-04-24 19:55 | 54.85722 | 15.27180 | 20164 ft | 378 kts | 306° |
| 2026-04-24 19:56 | 54.87241 | 15.23475 | 19672 ft | 376 kts | 306° |
| 2026-04-24 19:56 | 54.88738 | 15.19818 | 19193 ft | 374 kts | 306° |
| 2026-04-24 19:56 | 54.90242 | 15.16141 | 18721 ft | 372 kts | 306° |
| 2026-04-24 19:56 | 54.91735 | 15.12481 | 18252 ft | 370 kts | 306° |
| 2026-04-24 19:57 | 54.93219 | 15.08840 | 17716 ft | 368 kts | 306° |
| 2026-04-24 19:57 | 54.94695 | 15.05213 | 17181 ft | 366 kts | 306° |
| 2026-04-24 19:57 | 54.96160 | 15.01609 | 16668 ft | 364 kts | 306° |
| 2026-04-24 19:57 | 54.97578 | 14.98115 | 16192 ft | 362 kts | 306° |
| 2026-04-24 19:58 | 54.99023 | 14.94548 | 15711 ft | 360 kts | 306° |
| 2026-04-24 19:58 | 55.00464 | 14.90988 | 15240 ft | 358 kts | 306° |
| 2026-04-24 19:58 | 55.01894 | 14.87449 | 14762 ft | 357 kts | 306° |
| 2026-04-24 19:58 | 55.03319 | 14.83920 | 14307 ft | 355 kts | 306° |
| 2026-04-24 19:59 | 55.04737 | 14.80400 | 13857 ft | 354 kts | 306° |
| 2026-04-24 19:59 | 55.06142 | 14.76891 | 13373 ft | 353 kts | 305° |
| 2026-04-24 19:59 | 55.07239 | 14.73059 | 12857 ft | 355 kts | 292° |
| 2026-04-24 19:59 | 55.08029 | 14.68984 | 12373 ft | 354 kts | 291° |
| 2026-04-24 20:00 | 55.08799 | 14.64914 | 11872 ft | 353 kts | 291° |
| 2026-04-24 20:00 | 55.09567 | 14.60866 | 11463 ft | 350 kts | 291° |
| 2026-04-24 20:00 | 55.10335 | 14.56848 | 11041 ft | 348 kts | 291° |
| 2026-04-24 20:00 | 55.11106 | 14.52853 | 10626 ft | 347 kts | 291° |
| 2026-04-24 20:01 | 55.11879 | 14.48865 | 10217 ft | 346 kts | 291° |
| 2026-04-24 20:01 | 55.12650 | 14.44899 | 9807 ft | 345 kts | 291° |
| 2026-04-24 20:01 | 55.13420 | 14.40935 | 9363 ft | 344 kts | 291° |
| 2026-04-24 20:01 | 55.14190 | 14.36976 | 8906 ft | 344 kts | 291° |
| 2026-04-24 20:02 | 55.14697 | 14.34362 | 8619 ft | 343 kts | 291° |
| 2026-04-24 20:02 | 55.15715 | 14.29104 | 8153 ft | 339 kts | 290° |
| 2026-04-24 20:02 | 55.16465 | 14.25218 | 7880 ft | 335 kts | 290° |
| 2026-04-24 20:02 | 55.17207 | 14.21372 | 7608 ft | 333 kts | 290° |
| 2026-04-24 20:03 | 55.17945 | 14.17540 | 7338 ft | 332 kts | 290° |
| 2026-04-24 20:03 | 55.18681 | 14.13712 | 7105 ft | 331 kts | 290° |
| 2026-04-24 20:03 | 55.19412 | 14.09897 | 6867 ft | 331 kts | 290° |
| 2026-04-24 20:03 | 55.20143 | 14.06077 | 6643 ft | 331 kts | 290° |
| 2026-04-24 20:04 | 55.20877 | 14.02237 | 6415 ft | 332 kts | 290° |
| 2026-04-24 20:04 | 55.21567 | 13.98614 | 6193 ft | 332 kts | 290° |
| 2026-04-24 20:04 | 55.22296 | 13.94778 | 5955 ft | 332 kts | 290° |
| 2026-04-24 20:04 | 55.23024 | 13.90947 | 5705 ft | 331 kts | 290° |
| 2026-04-24 20:05 | 55.23741 | 13.87166 | 5449 ft | 330 kts | 290° |
| 2026-04-24 20:05 | 55.24461 | 13.83361 | 5205 ft | 328 kts | 290° |
| 2026-04-24 20:05 | 55.25174 | 13.79583 | 4969 ft | 325 kts | 290° |
| 2026-04-24 20:05 | 55.25875 | 13.75852 | 4717 ft | 318 kts | 290° |
| 2026-04-24 20:06 | 55.26552 | 13.72241 | 4459 ft | 304 kts | 290° |
| 2026-04-24 20:06 | 55.27197 | 13.68795 | 4213 ft | 291 kts | 290° |
| 2026-04-24 20:06 | 55.27817 | 13.65481 | 3961 ft | 281 kts | 290° |
| 2026-04-24 20:06 | 55.28415 | 13.62285 | 3709 ft | 271 kts | 290° |
| 2026-04-24 20:07 | 55.28808 | 13.60185 | 3544 ft | 265 kts | 290° |
| 2026-04-24 20:07 | 55.29553 | 13.56188 | 3225 ft | 255 kts | 290° |
| 2026-04-24 20:07 | 55.30097 | 13.53265 | 2976 ft | 249 kts | 290° |
| 2026-04-24 20:07 | 55.30627 | 13.50410 | 2725 ft | 236 kts | 290° |
| 2026-04-24 20:08 | 55.31221 | 13.47845 | 2536 ft | 218 kts | 305° |
| 2026-04-24 20:08 | 55.32216 | 13.45951 | 2514 ft | 205 kts | 319° |
| 2026-04-24 20:08 | 55.33300 | 13.44508 | 2508 ft | 186 kts | 322° |
| 2026-04-24 20:08 | 55.34332 | 13.43187 | 2514 ft | 181 kts | 322° |
| 2026-04-24 20:09 | 55.35320 | 13.41937 | 2490 ft | 170 kts | 325° |
| 2026-04-24 20:09 | 55.36427 | 13.41324 | 2515 ft | 170 kts | 347° |
| 2026-04-24 20:09 | 55.37595 | 13.40992 | 2498 ft | 169 kts | 346° |
| 2026-04-24 20:09 | 55.38726 | 13.40713 | 2509 ft | 160 kts | 347° |
| 2026-04-24 20:10 | 55.39776 | 13.40488 | 2475 ft | 144 kts | 346° |
| 2026-04-24 20:10 | 55.40751 | 13.40282 | 2502 ft | 143 kts | 346° |
| 2026-04-24 20:10 | 55.41732 | 13.40076 | 2362 ft | 142 kts | 346° |
| 2026-04-24 20:10 | 55.42707 | 13.39875 | 2176 ft | 141 kts | 346° |
| 2026-04-24 20:11 | 55.43674 | 13.39676 | 1982 ft | 139 kts | 346° |
| 2026-04-24 20:11 | 55.44626 | 13.39480 | 1806 ft | 138 kts | 346° |
| 2026-04-24 20:11 | 55.45581 | 13.39282 | 1617 ft | 138 kts | 347° |
| 2026-04-24 20:11 | 55.46531 | 13.39083 | 1433 ft | 138 kts | 347° |
| 2026-04-24 20:12 | 55.47498 | 13.38886 | 1236 ft | 140 kts | 347° |
| 2026-04-24 20:12 | 55.48461 | 13.38698 | 1039 ft | 139 kts | 349° |
| 2026-04-24 20:12 | 55.49435 | 13.38499 | 835 ft | 142 kts | 348° |
| 2026-04-24 20:12 | 55.50411 | 13.38276 | 661 ft | 140 kts | 349° |
| 2026-04-24 20:13 | 55.51379 | 13.38090 | 475 ft | 141 kts | 351° |
| 2026-04-24 20:13 | 55.52351 | 13.37883 | 279 ft | 140 kts | 351° |
| 2026-04-24 20:13 | 55.53258 | 13.37694 | 239 ft | 117 kts | 353° |
| 2026-04-24 20:13 | 55.53917 | 13.37558 | 239 ft | 74 kts | 353° |
| 2026-04-24 20:14 | 55.54285 | 13.37482 | 238 ft | 32 kts | 354° |
| 2026-04-24 20:14 | 55.54485 | 13.37445 | 232 ft | 29 kts | 354° |
| 2026-04-24 20:14 | 55.54676 | 13.37406 | 229 ft | 27 kts | 353° |
| 2026-04-24 20:14 | 55.54787 | 13.37327 | 232 ft | 16 kts | 286° |
| 2026-04-24 20:15 | 55.54785 | 13.37272 | 232 ft | 4 kts | 251° |
| 2026-04-24 20:15 | 55.54742 | 13.37216 | 232 ft | 12 kts | 200° |
| 2026-04-24 20:15 | 55.54650 | 13.37157 | 230 ft | 15 kts | 200° |
| 2026-04-24 20:15 | 55.54549 | 13.37136 | 230 ft | 15 kts | 174° |
| 2026-04-24 20:16 | 55.54451 | 13.37158 | 230 ft | 14 kts | 170° |
| 2026-04-24 20:16 | 55.54358 | 13.37183 | 232 ft | 13 kts | 174° |
| 2026-04-24 20:16 | 55.54267 | 13.37197 | 230 ft | 13 kts | 175° |
| 2026-04-24 20:16 | 55.54200 | 13.37117 | 230 ft | 13 kts | 248° |
| 2026-04-24 20:17 | 55.54175 | 13.36971 | 230 ft | 12 kts | 262° |
| 2026-04-24 20:17 | 55.54157 | 13.36703 | 230 ft | 9 kts | 264° |
| 2026-04-24 20:17 | 55.54175 | 13.36638 | 230 ft | 6 kts | 350° |
| 2026-04-24 20:18 | 55.54200 | 13.36635 | 230 ft | 2 kts | 354° |
| 2026-04-24 20:18 | 55.54215 | 13.36631 | 230 ft | 2 kts | 353° |
| 2026-04-24 20:18 | 55.54221 | 13.36630 | 230 ft | 0 kts | 353° |